createdAt,value
2023-04-28T00:01:51.485Z,10.33
2023-04-28T00:05:37.039Z,10.29
2023-04-28T00:09:21.062Z,10.28
2023-04-28T00:13:03.718Z,10.29
2023-04-28T00:16:46.603Z,10.32
2023-04-28T00:20:29.404Z,10.33
2023-04-28T00:24:12.127Z,10.31
2023-04-28T00:27:56.120Z,10.32
2023-04-28T00:31:38.783Z,10.33
2023-04-28T00:35:21.660Z,10.34
2023-04-28T00:39:04.298Z,10.36
2023-04-28T00:42:46.982Z,10.39
2023-04-28T00:46:33.015Z,10.40
2023-04-28T00:50:15.985Z,10.42
2023-04-28T00:53:58.729Z,10.37
2023-04-28T00:57:41.825Z,10.29
2023-04-28T01:01:24.601Z,10.25
2023-04-28T01:05:09.937Z,10.27
2023-04-28T01:08:53.322Z,10.30
2023-04-28T01:12:35.965Z,10.30
2023-04-28T01:16:18.702Z,10.32
2023-04-28T01:20:01.381Z,10.30
2023-04-28T01:23:48.022Z,10.30
2023-04-28T01:27:30.787Z,10.29
2023-04-28T01:31:13.401Z,10.27
2023-04-28T01:34:56.254Z,10.27
2023-04-28T01:38:38.853Z,10.27
2023-04-28T01:42:22.938Z,10.29
2023-04-28T01:46:05.755Z,10.29
2023-04-28T01:49:50.052Z,10.26
2023-04-28T01:53:32.706Z,10.26
2023-04-28T01:57:17.315Z,10.26
2023-04-28T02:01:01.740Z,10.24
2023-04-28T02:04:44.468Z,10.25
2023-04-28T02:08:27.181Z,10.28
2023-04-28T02:12:09.822Z,10.24
2023-04-28T02:15:52.495Z,10.22
2023-04-28T02:19:38.570Z,10.22
2023-04-28T02:23:21.224Z,10.25
2023-04-28T02:27:05.184Z,10.25
2023-04-28T02:30:47.799Z,10.27
2023-04-28T02:34:30.422Z,10.23
2023-04-28T02:38:14.391Z,10.21
2023-04-28T02:41:57.748Z,10.15
2023-04-28T02:45:42.499Z,10.20
2023-04-28T02:49:25.354Z,10.20
2023-04-28T02:53:07.970Z,10.23
2023-04-28T02:56:52.008Z,10.23
2023-04-28T03:00:34.686Z,10.19
2023-04-28T03:04:17.594Z,10.10
2023-04-28T03:08:00.575Z,10.05
2023-04-28T03:11:43.194Z,10.06
2023-04-28T03:15:27.238Z,10.05
2023-04-28T03:19:09.858Z,10.09
2023-04-28T03:22:52.462Z,10.09
2023-04-28T03:26:35.473Z,10.09
2023-04-28T03:30:18.122Z,10.12
2023-04-28T03:34:06.004Z,10.13
2023-04-28T03:37:48.653Z,10.17
2023-04-28T03:41:31.495Z,10.14
2023-04-28T03:45:14.129Z,10.14
2023-04-28T03:48:56.813Z,10.09
2023-04-28T03:52:40.828Z,10.14
2023-04-28T03:56:23.432Z,10.12
2023-04-28T04:00:07.778Z,10.09
2023-04-28T04:03:50.629Z,10.08
2023-04-28T04:07:33.366Z,9.99
2023-04-28T04:11:17.481Z,9.89
2023-04-28T04:15:00.076Z,9.79
2023-04-28T04:18:42.842Z,9.83
2023-04-28T04:22:25.489Z,9.91
2023-04-28T04:26:08.289Z,9.98
2023-04-28T04:29:52.293Z,9.97
2023-04-28T04:33:37.231Z,9.97
2023-04-28T04:37:22.608Z,10.00
2023-04-28T04:41:05.318Z,10.03
2023-04-28T04:44:47.990Z,10.04
2023-04-28T04:48:32.141Z,10.03
2023-04-28T04:52:14.811Z,10.03
2023-04-28T04:55:57.517Z,10.04
2023-04-28T04:59:40.112Z,10.08
2023-04-28T05:03:22.871Z,10.10
2023-04-28T05:07:06.879Z,10.09
2023-04-28T05:10:49.553Z,10.13
2023-04-28T05:14:32.234Z,10.21
2023-04-28T05:18:14.990Z,10.20
2023-04-28T05:22:00.928Z,10.25
2023-04-28T05:25:45.207Z,10.28
2023-04-28T05:29:27.961Z,10.33
2023-04-28T05:33:10.639Z,10.39
2023-04-28T05:36:53.454Z,10.43
2023-04-28T05:40:36.130Z,10.42
2023-04-28T05:44:20.240Z,10.43
2023-04-28T05:48:04.118Z,10.43
2023-04-28T05:51:46.833Z,10.49
2023-04-28T05:55:29.486Z,10.51
2023-04-28T05:59:12.076Z,10.55
2023-04-28T06:02:56.280Z,10.40
2023-04-28T06:06:39.122Z,10.25
2023-04-28T06:10:22.883Z,10.27
2023-04-28T06:14:06.789Z,10.35
2023-04-28T06:17:49.560Z,10.39
2023-04-28T06:21:33.821Z,10.35
2023-04-28T06:25:16.524Z,10.36
2023-04-28T06:28:59.191Z,10.52
2023-04-28T06:32:41.947Z,10.45
2023-04-28T06:36:24.707Z,10.46
2023-04-28T06:40:09.966Z,10.52
2023-04-28T06:43:52.620Z,10.63
2023-04-28T06:47:35.243Z,10.73
2023-04-28T06:51:17.857Z,10.87
2023-04-28T06:55:00.485Z,11.06
2023-04-28T06:58:44.503Z,11.24
2023-04-28T07:02:27.447Z,11.29
2023-04-28T07:06:11.411Z,11.41
2023-04-28T07:09:54.054Z,11.53
2023-04-28T07:13:36.713Z,11.73
2023-04-28T07:17:20.824Z,11.73
2023-04-28T07:21:05.420Z,11.80
2023-04-28T07:24:48.311Z,11.86
2023-04-28T07:28:31.334Z,11.83
2023-04-28T07:32:14.081Z,11.76
2023-04-28T07:35:58.119Z,11.57
2023-04-28T07:39:41.720Z,11.54
2023-04-28T07:43:24.570Z,11.63
2023-04-28T07:47:07.277Z,11.62
2023-04-28T07:50:49.976Z,11.64
2023-04-28T07:54:35.777Z,11.58
2023-04-28T07:58:19.733Z,11.61
2023-04-28T08:02:02.839Z,11.67
2023-04-28T08:05:45.805Z,11.68
2023-04-28T08:09:28.525Z,11.69
2023-04-28T08:13:12.836Z,11.75
2023-04-28T08:16:55.479Z,11.70
2023-04-28T08:20:41.620Z,11.57
2023-04-28T08:24:24.321Z,11.64
2023-04-28T08:28:08.698Z,11.65
2023-04-28T08:31:52.883Z,11.62
2023-04-28T08:35:35.772Z,11.66
2023-04-28T08:39:19.637Z,11.65
2023-04-28T08:43:02.277Z,11.64
2023-04-28T08:46:46.664Z,11.68
2023-04-28T08:50:32.199Z,11.68
2023-04-28T08:54:26.004Z,11.67
2023-04-28T08:58:09.610Z,11.60
2023-04-28T09:01:53.687Z,11.63
2023-04-28T09:05:40.542Z,11.69
2023-04-28T09:09:25.780Z,11.77
2023-04-28T09:13:08.906Z,14.54
2023-04-28T09:16:51.985Z,14.98
2023-04-28T09:20:35.774Z,15.09
2023-04-28T09:24:32.947Z,14.70
2023-04-28T09:28:21.534Z,14.50
2023-04-28T09:32:18.116Z,13.96
2023-04-28T09:36:01.144Z,13.39
2023-04-28T09:39:46.199Z,13.09
2023-04-28T09:43:30.801Z,13.00
2023-04-28T09:47:22.248Z,12.94
2023-04-28T09:51:06.537Z,12.82
2023-04-28T09:54:51.466Z,12.84
2023-04-28T09:58:36.034Z,12.79
2023-04-28T10:02:41.606Z,12.81
2023-04-28T10:06:23.925Z,12.54
2023-04-28T10:10:09.032Z,12.34
2023-04-28T10:13:52.292Z,12.21
2023-04-28T10:17:35.550Z,12.09
2023-04-28T10:21:20.135Z,11.84
2023-04-28T10:25:30.112Z,11.76
2023-04-28T10:29:12.827Z,11.73
2023-04-28T10:33:26.745Z,11.71
2023-04-28T10:37:09.792Z,11.71
2023-04-28T10:40:55.032Z,11.66
2023-04-28T10:44:44.678Z,11.60
2023-04-28T10:49:06.288Z,11.56
2023-04-28T10:52:52.332Z,11.56
2023-04-28T10:56:40.638Z,11.56
2023-04-28T11:00:30.264Z,11.60
2023-04-28T11:04:13.747Z,11.55
2023-04-28T11:08:33.231Z,11.55
2023-04-28T11:12:19.017Z,11.49
2023-04-28T11:16:05.646Z,11.45
2023-04-28T11:19:49.600Z,11.35
2023-04-28T11:23:35.672Z,11.29
2023-04-28T11:27:26.065Z,11.33
2023-04-28T11:31:12.471Z,11.38
2023-04-28T11:34:55.177Z,11.44
2023-04-28T11:38:44.767Z,11.49
2023-04-28T11:42:29.349Z,11.63
2023-04-28T11:46:12.355Z,11.70
2023-04-28T11:49:58.010Z,11.81
2023-04-28T11:53:43.606Z,11.91
2023-04-28T11:57:26.786Z,12.04
2023-04-28T12:01:15.396Z,12.17
2023-04-28T12:04:58.601Z,12.20
2023-04-28T12:08:41.380Z,12.21
2023-04-28T12:12:40.230Z,12.15
2023-04-28T12:16:45.214Z,12.18
2023-04-28T12:20:38.399Z,12.41
2023-04-28T12:24:22.471Z,12.39
2023-04-28T12:28:07.523Z,12.31
2023-04-28T12:31:52.956Z,12.32
2023-04-28T12:35:35.796Z,12.31
2023-04-28T12:39:20.010Z,12.33
2023-04-28T12:43:02.733Z,12.32
2023-04-28T12:46:45.455Z,12.29
2023-04-28T12:50:32.554Z,12.28
2023-04-28T12:54:15.476Z,12.33
2023-04-28T12:57:59.391Z,12.33
2023-04-28T13:01:42.281Z,12.35
2023-04-28T13:05:25.064Z,12.42
2023-04-28T13:09:09.088Z,12.53
2023-04-28T13:12:52.001Z,12.71
2023-04-28T13:16:35.007Z,12.87
2023-04-28T13:20:17.895Z,13.02
2023-04-28T13:24:00.471Z,13.06
2023-04-28T13:27:44.469Z,13.05
2023-04-28T13:31:27.295Z,13.01
2023-04-28T13:35:10.299Z,13.06
2023-04-28T13:38:52.940Z,13.32
2023-04-28T13:42:35.731Z,13.48
2023-04-28T13:46:19.931Z,13.73
2023-04-28T13:50:06.091Z,13.95
2023-04-28T13:53:48.734Z,14.19
2023-04-28T13:57:31.422Z,14.34
2023-04-28T14:01:14.630Z,14.47
2023-04-28T14:04:58.763Z,14.61
2023-04-28T14:08:41.456Z,14.66
2023-04-28T14:12:24.181Z,14.67
2023-04-28T14:16:07.515Z,14.69
2023-04-28T14:19:50.185Z,14.60
2023-04-28T14:23:34.197Z,14.55
2023-04-28T14:27:16.920Z,14.60
2023-04-28T14:30:59.726Z,14.61
2023-04-28T14:34:42.690Z,14.66
2023-04-28T14:38:25.421Z,14.58
2023-04-28T14:42:09.448Z,14.52
2023-04-28T14:45:52.386Z,14.50
2023-04-28T14:49:35.314Z,14.42
2023-04-28T14:53:17.999Z,14.40
2023-04-28T14:57:00.652Z,14.41
2023-04-28T15:00:44.822Z,14.43
2023-04-28T15:04:30.677Z,14.40
2023-04-28T15:08:13.478Z,14.31
2023-04-28T15:11:56.238Z,14.21
2023-04-28T15:15:38.865Z,14.08
2023-04-28T15:19:22.936Z,13.99
2023-04-28T15:23:05.711Z,14.01
2023-04-28T15:26:48.714Z,13.96
2023-04-28T15:30:31.608Z,13.90
2023-04-28T15:34:14.477Z,13.90
2023-04-28T15:38:00.047Z,13.87
2023-04-28T15:41:42.751Z,13.80
2023-04-28T15:45:25.406Z,13.73
2023-04-28T15:49:08.567Z,13.75
2023-04-28T15:52:51.418Z,13.65
2023-04-28T15:56:35.800Z,13.58
2023-04-28T16:00:18.739Z,13.58
2023-04-28T16:04:01.673Z,13.53
2023-04-28T16:07:45.002Z,13.47
2023-04-28T16:11:27.656Z,13.46
2023-04-28T16:15:13.706Z,13.45
2023-04-28T16:18:57.493Z,13.44
2023-04-28T16:22:41.221Z,13.42
2023-04-28T16:26:23.993Z,13.44
2023-04-28T16:30:08.224Z,13.45
2023-04-28T16:33:52.392Z,13.45
2023-04-28T16:37:36.385Z,13.42
2023-04-28T16:41:19.051Z,13.40
2023-04-28T16:45:01.655Z,13.42
2023-04-28T16:48:44.276Z,13.46
2023-04-28T16:52:28.683Z,13.51
2023-04-28T16:56:11.653Z,13.50
2023-04-28T16:59:54.453Z,13.45
2023-04-28T17:03:41.601Z,13.39
2023-04-28T17:07:25.680Z,13.40
2023-04-28T17:11:09.813Z,13.36
2023-04-28T17:14:52.866Z,13.44
2023-04-28T17:18:36.625Z,13.50
2023-04-28T17:22:19.277Z,13.55
2023-04-28T17:26:03.236Z,13.58
2023-04-28T17:29:47.285Z,13.62
2023-04-28T17:33:30.039Z,13.53
2023-04-28T17:37:12.681Z,13.38
2023-04-28T17:40:55.331Z,13.32
2023-04-28T17:44:37.984Z,13.37
2023-04-28T17:48:22.032Z,13.42
2023-04-28T17:52:04.906Z,13.40
2023-04-28T17:55:47.576Z,13.45
2023-04-28T17:59:30.357Z,13.51
2023-04-28T18:03:13.195Z,13.59
2023-04-28T18:06:57.280Z,13.67
2023-04-28T18:10:39.865Z,13.67
2023-04-28T18:14:22.524Z,13.58
2023-04-28T18:18:05.770Z,13.46
2023-04-28T18:21:48.422Z,13.34
2023-04-28T18:25:33.345Z,13.18
2023-04-28T18:29:16.146Z,13.12
2023-04-28T18:32:58.811Z,13.07
2023-04-28T18:36:41.521Z,13.13
2023-04-28T18:40:24.443Z,13.05
2023-04-28T18:44:08.406Z,13.00
2023-04-28T18:47:51.385Z,13.08
2023-04-28T18:51:34.204Z,12.85
2023-04-28T18:55:17.234Z,12.76
2023-04-28T18:58:59.830Z,12.95
2023-04-28T19:02:44.440Z,12.86
2023-04-28T19:06:27.243Z,12.63
2023-04-28T19:10:10.783Z,12.49
2023-04-28T19:13:54.187Z,12.45
2023-04-28T19:17:36.893Z,12.50
2023-04-28T19:21:21.339Z,12.53
2023-04-28T19:25:04.430Z,12.58
2023-04-28T19:28:47.042Z,12.61
2023-04-28T19:32:30.091Z,12.61
2023-04-28T19:36:12.868Z,12.60
2023-04-28T19:39:56.961Z,12.61
2023-04-28T19:43:39.702Z,12.57
2023-04-28T19:47:25.406Z,12.46
2023-04-28T19:51:08.227Z,12.39
2023-04-28T19:54:51.550Z,12.46
2023-04-28T19:58:35.548Z,12.51
2023-04-28T20:02:18.880Z,12.48
2023-04-28T20:06:01.735Z,12.51
2023-04-28T20:09:44.842Z,12.46
2023-04-28T20:13:28.460Z,12.44
2023-04-28T20:17:12.722Z,12.39
2023-04-28T20:20:55.510Z,12.29
2023-04-28T20:24:39.464Z,12.28
2023-04-28T20:28:22.157Z,12.21
2023-04-28T20:32:05.754Z,12.21
2023-04-28T20:35:49.873Z,12.09
2023-04-28T20:39:32.993Z,11.98
2023-04-28T20:43:17.414Z,11.97
2023-04-28T20:47:01.466Z,11.88
2023-04-28T20:50:45.176Z,11.82
2023-04-28T20:54:29.250Z,11.79
2023-04-28T20:58:11.928Z,11.74
2023-04-28T21:01:54.654Z,11.66
2023-04-28T21:05:40.129Z,11.59
2023-04-28T21:09:24.863Z,11.57
2023-04-28T21:13:09.773Z,11.57
2023-04-28T21:16:52.531Z,11.60
2023-04-28T21:20:35.204Z,11.50
2023-04-28T21:24:17.861Z,11.46
2023-04-28T21:28:01.721Z,11.49
2023-04-28T21:31:46.153Z,11.39
2023-04-28T21:35:29.143Z,11.37
2023-04-28T21:39:11.840Z,11.36
2023-04-28T21:42:54.473Z,11.26
2023-04-28T21:46:37.440Z,11.27
2023-04-28T21:50:21.505Z,11.26
2023-04-28T21:54:07.147Z,11.23
2023-04-28T21:57:49.759Z,11.17
2023-04-28T22:01:32.609Z,11.09
2023-04-28T22:05:17.411Z,11.02
2023-04-28T22:09:01.592Z,10.96
2023-04-28T22:12:44.245Z,10.94
2023-04-28T22:16:26.883Z,10.91
2023-04-28T22:20:10.437Z,10.87
2023-04-28T22:23:53.100Z,10.90
2023-04-28T22:27:37.102Z,10.88
2023-04-28T22:31:19.709Z,10.86
2023-04-28T22:35:02.655Z,10.81
2023-04-28T22:38:46.164Z,10.88
2023-04-28T22:42:29.063Z,10.82
2023-04-28T22:46:13.075Z,10.77
2023-04-28T22:49:56.074Z,10.80
2023-04-28T22:53:38.732Z,10.74
2023-04-28T22:57:21.408Z,10.71
2023-04-28T23:01:04.472Z,10.71
2023-04-28T23:04:48.798Z,10.65
2023-04-28T23:08:31.585Z,10.65
2023-04-28T23:12:14.264Z,10.62
2023-04-28T23:15:59.260Z,10.57
2023-04-28T23:19:41.936Z,10.57
2023-04-28T23:23:26.030Z,10.52
2023-04-28T23:27:09.292Z,10.45
2023-04-28T23:30:51.915Z,10.44
2023-04-28T23:34:34.532Z,10.41
2023-04-28T23:38:17.323Z,10.34
2023-04-28T23:42:01.741Z,10.32
2023-04-28T23:45:44.444Z,10.27
2023-04-28T23:49:27.125Z,10.29
2023-04-28T23:53:09.796Z,10.29
2023-04-28T23:56:52.440Z,10.26
